Time;durP1;ratioP1;P1;durP2;ratioP2;P2;SDS_P1;SDS_P2;PMS_P1;PMS_P2;Temp;Humidity;BMP_temperature;BMP_pressure;BME280_temperature;BME280_humidity;BME280_pressure;Samples;Min_cycle;Max_cycle;Signal;HPM_P1;HPM_P2
2023/07/13 00:00:36;;;;;;;8.63;4.20;;;;;;;;;;4979571;28;20030;-70
2023/07/13 00:03:01;;;;;;;8.70;4.22;;;;;;;;;;4996518;28;20025;-70
2023/07/13 00:05:27;;;;;;;17.13;4.32;;;;;;;;;;4993048;28;20022;-69
2023/07/13 00:07:54;;;;;;;5.93;3.70;;;;;;;;;;5016222;28;20026;-70
2023/07/13 00:10:19;;;;;;;9.20;4.18;;;;;;;;;;5005782;28;20156;-70
2023/07/13 00:12:45;;;;;;;6.63;4.25;;;;;;;;;;4979178;28;20109;-70
2023/07/13 00:15:22;;;;;;;9.07;3.80;;;;;;;;;;4995634;28;20026;-70
2023/07/13 00:17:49;;;;;;;7.20;4.18;;;;;;;;;;4980525;28;20483;-70
2023/07/13 00:20:14;;;;;;;9.73;4.72;;;;;;;;;;4983707;28;20542;-70
2023/07/13 00:22:39;;;;;;;9.13;4.60;;;;;;;;;;5012671;28;20100;-70
2023/07/13 00:25:05;;;;;;;6.22;4.10;;;;;;;;;;5011121;28;20512;-70
2023/07/13 00:27:31;;;;;;;8.73;4.55;;;;;;;;;;4994591;28;20049;-70
2023/07/13 00:29:57;;;;;;;9.18;4.25;;;;;;;;;;5002276;28;20104;-69
2023/07/13 00:32:25;;;;;;;9.10;4.05;;;;;;;;;;5004490;28;20081;-69
2023/07/13 00:34:50;;;;;;;9.73;4.47;;;;;;;;;;5004306;28;20376;-70
2023/07/13 00:37:15;;;;;;;6.32;4.25;;;;;;;;;;4996669;28;20029;-70
2023/07/13 00:39:41;;;;;;;9.75;4.60;;;;;;;;;;4995413;28;20018;-70
2023/07/13 00:42:06;;;;;;;8.20;4.25;;;;;;;;;;4980976;28;20392;-70
2023/07/13 00:44:31;;;;;;;9.90;4.97;;;;;;;;;;5011102;28;20113;-70
2023/07/13 00:46:58;;;;;;;10.88;4.68;;;;;;;;;;4997291;28;20066;-69
2023/07/13 00:49:26;;;;;;;7.93;4.82;;;;;;;;;;4983620;28;20562;-70
2023/07/13 00:52:20;;;;;;;9.73;4.57;;;;;;;;;;4978368;28;20060;-70
2023/07/13 00:54:46;;;;;;;11.48;4.78;;;;;;;;;;4949467;28;20053;-70
2023/07/13 00:57:15;;;;;;;11.93;5.28;;;;;;;;;;4976216;28;20018;-70
2023/07/13 00:59:50;;;;;;;12.95;6.10;;;;;;;;;;4970132;28;20026;-70
2023/07/13 01:02:16;;;;;;;6.72;4.75;;;;;;;;;;4995606;28;20566;-70
2023/07/13 01:04:43;;;;;;;13.45;4.95;;;;;;;;;;4980724;28;20026;-69
2023/07/13 01:07:09;;;;;;;11.38;4.63;;;;;;;;;;4995680;28;20022;-70
2023/07/13 01:09:35;;;;;;;16.27;5.43;;;;;;;;;;4997039;28;20442;-70
2023/07/13 01:12:47;;;;;;;12.50;4.43;;;;;;;;;;4994293;28;20076;-70
2023/07/13 01:15:52;;;;;;;9.70;5.30;;;;;;;;;;4986844;28;20030;-70
2023/07/13 01:18:26;;;;;;;10.73;4.95;;;;;;;;;;4994580;28;20105;-70
2023/07/13 01:20:51;;;;;;;9.65;5.13;;;;;;;;;;4971443;28;20149;-70
2023/07/13 01:23:16;;;;;;;12.13;5.45;;;;;;;;;;4991524;28;20061;-69
2023/07/13 01:25:41;;;;;;;8.20;4.30;;;;;;;;;;4995210;28;20033;-70
2023/07/13 01:28:10;;;;;;;8.02;4.05;;;;;;;;;;4995123;28;20550;-70
2023/07/13 01:30:39;;;;;;;11.38;4.65;;;;;;;;;;4992468;28;20058;-69
2023/07/13 01:33:07;;;;;;;11.15;4.45;;;;;;;;;;4994693;28;20037;-69
2023/07/13 01:35:32;;;;;;;8.52;4.05;;;;;;;;;;4984576;28;20122;-69
2023/07/13 01:37:57;;;;;;;9.38;3.67;;;;;;;;;;4975500;28;20050;-70
2023/07/13 01:40:23;;;;;;;6.47;4.00;;;;;;;;;;4960494;28;20027;-70
2023/07/13 01:42:48;;;;;;;11.82;4.00;;;;;;;;;;4978876;28;20050;-69
2023/07/13 01:45:13;;;;;;;8.52;3.88;;;;;;;;;;4989851;28;20109;-70
2023/07/13 01:47:39;;;;;;;7.78;3.90;;;;;;;;;;4958268;28;20030;-70
2023/07/13 01:50:04;;;;;;;6.15;3.22;;;;;;;;;;4958027;28;20479;-69
2023/07/13 01:52:30;;;;;;;8.48;3.40;;;;;;;;;;4974861;28;20038;-70
2023/07/13 01:54:55;;;;;;;9.63;4.13;;;;;;;;;;4974923;28;20022;-69
2023/07/13 01:57:20;;;;;;;5.50;3.17;;;;;;;;;;5057671;23;20064;-77
2023/07/13 01:59:46;;;;;;;5.15;3.25;;;;;;;;;;5033653;28;20391;-77
2023/07/13 02:02:11;;;;;;;5.35;4.07;;;;;;;;;;5036326;28;20026;-75
2023/07/13 02:04:36;;;;;;;7.25;3.70;;;;;;;;;;5033907;28;20022;-75
2023/07/13 02:07:02;;;;;;;6.25;3.35;;;;;;;;;;5033732;28;20041;-74
2023/07/13 02:09:27;;;;;;;10.38;3.72;;;;;;;;;;5052082;28;20055;-75
2023/07/13 02:11:53;;;;;;;10.52;3.65;;;;;;;;;;5052169;28;20409;-75
2023/07/13 02:14:18;;;;;;;8.52;3.70;;;;;;;;;;5049227;28;20037;-75
2023/07/13 02:16:43;;;;;;;8.68;3.60;;;;;;;;;;5053250;28;20028;-74
2023/07/13 02:19:09;;;;;;;7.80;3.88;;;;;;;;;;5040784;28;20049;-75
2023/07/13 02:21:34;;;;;;;7.10;3.15;;;;;;;;;;5032448;28;20017;-75
2023/07/13 02:23:59;;;;;;;7.10;3.72;;;;;;;;;;5032112;28;20021;-75
2023/07/13 02:26:25;;;;;;;10.82;3.92;;;;;;;;;;5032970;28;20449;-75
2023/07/13 02:28:51;;;;;;;6.55;3.70;;;;;;;;;;5031745;28;20037;-75
2023/07/13 02:31:16;;;;;;;9.63;3.78;;;;;;;;;;5033063;28;20078;-75
2023/07/13 02:33:42;;;;;;;5.80;3.33;;;;;;;;;;5032147;28;20033;-75
2023/07/13 02:36:07;;;;;;;7.30;3.20;;;;;;;;;;5033138;28;20036;-75
2023/07/13 02:38:34;;;;;;;8.68;3.88;;;;;;;;;;5044072;28;20397;-76
2023/07/13 02:41:01;;;;;;;7.88;3.53;;;;;;;;;;5051536;28;20017;-76
2023/07/13 02:43:26;;;;;;;5.82;3.55;;;;;;;;;;5047452;28;20036;-76
2023/07/13 02:45:52;;;;;;;6.40;3.58;;;;;;;;;;5033363;28;20025;-76
2023/07/13 02:48:17;;;;;;;8.15;3.47;;;;;;;;;;5031600;28;20032;-75
2023/07/13 02:50:44;;;;;;;6.70;3.15;;;;;;;;;;5031974;28;20021;-76
2023/07/13 02:53:09;;;;;;;5.25;3.42;;;;;;;;;;5031251;28;20143;-76
2023/07/13 02:55:35;;;;;;;6.55;3.50;;;;;;;;;;5052246;28;20549;-76
2023/07/13 02:58:01;;;;;;;5.55;3.72;;;;;;;;;;5053026;28;20037;-76
2023/07/13 03:00:26;;;;;;;7.40;3.67;;;;;;;;;;5042255;28;20029;-76
2023/07/13 03:02:52;;;;;;;6.57;3.80;;;;;;;;;;5031744;28;20021;-76
2023/07/13 03:05:18;;;;;;;10.35;3.95;;;;;;;;;;5015314;28;20021;-76
2023/07/13 03:07:43;;;;;;;10.70;4.38;;;;;;;;;;5033274;28;20031;-76
2023/07/13 03:10:09;;;;;;;5.95;3.65;;;;;;;;;;5031640;28;20467;-76
2023/07/13 03:12:34;;;;;;;15.43;4.78;;;;;;;;;;5031701;28;20021;-75
2023/07/13 03:14:59;;;;;;;7.00;3.72;;;;;;;;;;5030842;28;20033;-76
2023/07/13 03:17:25;;;;;;;9.60;4.00;;;;;;;;;;5034587;28;20036;-76
2023/07/13 03:19:51;;;;;;;8.93;4.43;;;;;;;;;;5031368;28;20025;-76
2023/07/13 03:22:17;;;;;;;10.88;3.78;;;;;;;;;;5033904;28;20037;-75
2023/07/13 03:24:43;;;;;;;12.77;5.40;;;;;;;;;;5031640;28;20056;-73
2023/07/13 03:27:08;;;;;;;13.48;4.45;;;;;;;;;;5016609;28;20056;-72
2023/07/13 03:29:34;;;;;;;10.20;4.35;;;;;;;;;;5036457;28;20045;-72
2023/07/13 03:31:59;;;;;;;11.80;4.10;;;;;;;;;;5051175;28;20029;-72
2023/07/13 03:34:24;;;;;;;17.60;4.70;;;;;;;;;;5033016;28;20029;-73
2023/07/13 03:36:50;;;;;;;23.80;5.65;;;;;;;;;;5031397;28;20033;-73
2023/07/13 03:39:15;;;;;;;19.98;5.15;;;;;;;;;;5035309;28;20033;-73
2023/07/13 03:41:40;;;;;;;10.20;3.80;;;;;;;;;;5051685;28;20021;-75
2023/07/13 03:44:06;;;;;;;5.82;3.53;;;;;;;;;;5039950;28;20034;-73
2023/07/13 03:46:33;;;;;;;5.95;3.50;;;;;;;;;;5031137;28;20025;-72
2023/07/13 03:48:58;;;;;;;5.35;2.92;;;;;;;;;;5032557;28;20028;-72
2023/07/13 03:51:23;;;;;;;3.38;2.25;;;;;;;;;;5032653;28;20402;-71
2023/07/13 03:53:49;;;;;;;6.00;2.42;;;;;;;;;;5031764;28;20040;-72
2023/07/13 03:56:15;;;;;;;6.60;2.60;;;;;;;;;;5031355;28;20037;-72
2023/07/13 03:58:42;;;;;;;4.38;2.17;;;;;;;;;;5031432;28;20025;-72
2023/07/13 04:01:09;;;;;;;3.15;2.13;;;;;;;;;;5047020;28;20108;-73
2023/07/13 04:03:35;;;;;;;4.32;2.47;;;;;;;;;;5030251;28;20026;-74
2023/07/13 04:06:01;;;;;;;4.55;2.35;;;;;;;;;;5031236;28;20079;-74
2023/07/13 04:08:28;;;;;;;3.25;2.00;;;;;;;;;;5031139;28;20028;-73
2023/07/13 04:10:54;;;;;;;4.28;2.17;;;;;;;;;;5033712;28;20033;-74
2023/07/13 04:13:19;;;;;;;3.60;1.88;;;;;;;;;;5034243;28;20096;-73
2023/07/13 04:15:45;;;;;;;4.68;2.50;;;;;;;;;;5034337;28;20053;-73
2023/07/13 04:18:10;;;;;;;5.15;2.25;;;;;;;;;;5036084;28;20437;-74
2023/07/13 04:20:35;;;;;;;6.05;3.65;;;;;;;;;;5036111;28;20036;-74
2023/07/13 04:23:01;;;;;;;5.07;2.70;;;;;;;;;;5038039;28;20222;-74
2023/07/13 04:25:27;;;;;;;3.03;1.98;;;;;;;;;;5034268;28;20522;-74
2023/07/13 04:27:53;;;;;;;6.50;2.67;;;;;;;;;;5046303;28;20028;-74
2023/07/13 04:30:19;;;;;;;3.85;2.25;;;;;;;;;;5034747;28;20386;-73
2023/07/13 04:32:44;;;;;;;4.00;2.28;;;;;;;;;;5034091;28;20029;-73
2023/07/13 04:35:10;;;;;;;5.57;2.83;;;;;;;;;;5040793;28;20025;-73
2023/07/13 04:37:35;;;;;;;6.10;2.25;;;;;;;;;;5055500;28;20029;-74
2023/07/13 04:40:01;;;;;;;2.83;2.08;;;;;;;;;;5052469;28;20021;-74
2023/07/13 04:42:26;;;;;;;4.20;2.65;;;;;;;;;;5044933;28;20025;-73
2023/07/13 04:44:51;;;;;;;5.10;2.65;;;;;;;;;;5045447;28;20025;-74
2023/07/13 04:47:17;;;;;;;5.18;3.00;;;;;;;;;;5051628;28;20497;-73
2023/07/13 04:49:44;;;;;;;5.53;2.70;;;;;;;;;;5049841;28;20033;-74
2023/07/13 04:52:09;;;;;;;3.58;2.45;;;;;;;;;;5033529;28;20026;-74
2023/07/13 04:54:35;;;;;;;5.55;3.03;;;;;;;;;;5033944;28;20124;-74
2023/07/13 04:57:00;;;;;;;7.55;2.75;;;;;;;;;;5033874;28;20056;-74
2023/07/13 04:59:26;;;;;;;8.40;4.30;;;;;;;;;;5041174;28;20371;-74
2023/07/13 05:01:51;;;;;;;9.77;3.20;;;;;;;;;;5035315;28;20075;-74
2023/07/13 05:04:17;;;;;;;9.23;3.85;;;;;;;;;;5033736;28;20028;-75
2023/07/13 05:06:42;;;;;;;5.78;3.10;;;;;;;;;;5039739;28;20024;-75
2023/07/13 05:09:07;;;;;;;8.10;3.80;;;;;;;;;;5054363;28;20029;-74
2023/07/13 05:11:33;;;;;;;7.47;3.33;;;;;;;;;;5051951;28;20462;-73
2023/07/13 05:13:58;;;;;;;8.50;3.45;;;;;;;;;;5034835;28;20124;-74
2023/07/13 05:16:23;;;;;;;10.65;3.28;;;;;;;;;;5034430;28;20070;-74
2023/07/13 05:18:48;;;;;;;7.07;3.40;;;;;;;;;;5045342;28;20382;-75
2023/07/13 05:21:14;;;;;;;9.00;3.25;;;;;;;;;;5034528;28;20033;-75
2023/07/13 05:23:41;;;;;;;6.75;3.05;;;;;;;;;;5032483;28;20048;-75
2023/07/13 05:26:07;;;;;;;7.82;2.90;;;;;;;;;;5033585;28;20021;-75
2023/07/13 05:28:32;;;;;;;9.18;3.65;;;;;;;;;;5036350;28;20070;-75
2023/07/13 05:30:58;;;;;;;5.85;2.88;;;;;;;;;;5034600;28;20044;-74
2023/07/13 05:33:23;;;;;;;4.40;3.20;;;;;;;;;;5034142;28;20021;-75
2023/07/13 05:35:49;;;;;;;9.13;2.70;;;;;;;;;;5050065;28;20032;-75
2023/07/13 05:38:14;;;;;;;8.13;2.97;;;;;;;;;;5053636;28;20436;-77
2023/07/13 05:40:42;;;;;;;5.70;2.20;;;;;;;;;;5053606;28;20477;-77
2023/07/13 05:43:07;;;;;;;5.10;2.33;;;;;;;;;;5038527;28;20029;-77
2023/07/13 05:45:33;;;;;;;8.43;2.92;;;;;;;;;;5034508;28;20029;-77
2023/07/13 05:47:58;;;;;;;12.30;2.40;;;;;;;;;;5036777;28;20051;-77
2023/07/13 05:50:23;;;;;;;11.30;2.67;;;;;;;;;;5037283;28;20053;-77
2023/07/13 05:52:49;;;;;;;8.18;1.67;;;;;;;;;;5052211;28;20024;-77
2023/07/13 05:55:14;;;;;;;12.63;2.22;;;;;;;;;;5050135;28;20025;-77
2023/07/13 05:57:39;;;;;;;5.05;1.90;;;;;;;;;;5049509;28;20035;-77
2023/07/13 06:00:05;;;;;;;7.45;2.38;;;;;;;;;;5053619;28;20017;-77
2023/07/13 06:02:31;;;;;;;8.40;2.20;;;;;;;;;;5048261;28;20060;-77
2023/07/13 06:04:56;;;;;;;6.15;1.70;;;;;;;;;;5033615;28;20108;-77
2023/07/13 06:07:21;;;;;;;4.85;2.55;;;;;;;;;;5032388;28;20042;-77
2023/07/13 06:09:47;;;;;;;6.85;2.22;;;;;;;;;;5033028;28;20021;-77
2023/07/13 06:12:12;;;;;;;6.68;3.35;;;;;;;;;;5034174;28;20033;-77
2023/07/13 06:14:37;;;;;;;5.00;2.20;;;;;;;;;;5049102;28;20043;-77
2023/07/13 06:17:03;;;;;;;8.27;1.83;;;;;;;;;;5033328;28;20037;-77
2023/07/13 06:19:29;;;;;;;5.82;2.10;;;;;;;;;;5041082;28;20025;-77
2023/07/13 06:21:54;;;;;;;5.20;1.98;;;;;;;;;;5053450;28;20531;-76
2023/07/13 06:24:19;;;;;;;4.28;2.22;;;;;;;;;;5052802;28;20043;-77
2023/07/13 06:26:44;;;;;;;7.30;1.92;;;;;;;;;;5044861;28;20035;-77
2023/07/13 06:29:10;;;;;;;4.65;2.20;;;;;;;;;;5035638;28;20026;-77
2023/07/13 06:31:35;;;;;;;5.72;2.40;;;;;;;;;;5031868;28;20029;-77
2023/07/13 06:34:00;;;;;;;7.57;2.00;;;;;;;;;;5032627;28;20478;-77
2023/07/13 06:36:26;;;;;;;8.00;2.17;;;;;;;;;;5035214;28;20032;-77
2023/07/13 06:38:51;;;;;;;7.78;2.10;;;;;;;;;;5031942;28;20025;-77
2023/07/13 06:41:16;;;;;;;6.68;2.33;;;;;;;;;;5035019;28;20040;-77
2023/07/13 06:43:42;;;;;;;4.55;1.90;;;;;;;;;;5041843;28;20070;-77
2023/07/13 06:46:07;;;;;;;9.63;2.35;;;;;;;;;;5053297;28;20021;-77
2023/07/13 06:48:33;;;;;;;6.95;2.28;;;;;;;;;;5048513;28;20439;-77
2023/07/13 06:50:58;;;;;;;9.02;2.67;;;;;;;;;;5053157;28;20025;-77
2023/07/13 06:53:23;;;;;;;7.22;2.35;;;;;;;;;;5051021;28;20052;-78
2023/07/13 06:55:50;;;;;;;8.15;2.75;;;;;;;;;;5052618;28;20049;-78
2023/07/13 06:58:17;;;;;;;7.05;2.47;;;;;;;;;;5052074;28;20120;-78
2023/07/13 07:00:42;;;;;;;4.13;2.80;;;;;;;;;;5031004;28;20036;-78
2023/07/13 07:03:08;;;;;;;6.65;2.78;;;;;;;;;;5032194;28;20093;-78
2023/07/13 07:05:33;;;;;;;5.07;2.90;;;;;;;;;;5020705;28;20449;-78
2023/07/13 07:07:58;;;;;;;5.47;2.08;;;;;;;;;;5032614;28;20017;-78
2023/07/13 07:10:24;;;;;;;7.57;2.53;;;;;;;;;;5026823;28;20087;-79
2023/07/13 07:12:49;;;;;;;3.35;2.22;;;;;;;;;;5032835;28;20029;-78
2023/07/13 07:15:14;;;;;;;12.65;2.72;;;;;;;;;;5034080;28;20040;-79
2023/07/13 07:17:40;;;;;;;6.40;2.38;;;;;;;;;;5031847;28;20027;-79
2023/07/13 07:20:05;;;;;;;5.85;2.25;;;;;;;;;;5015671;28;20461;-79
2023/07/13 07:22:31;;;;;;;7.10;2.75;;;;;;;;;;5033501;28;20022;-78
2023/07/13 07:24:57;;;;;;;6.13;2.67;;;;;;;;;;5031856;28;20397;-78
2023/07/13 07:27:23;;;;;;;9.02;2.30;;;;;;;;;;5021998;28;20453;-77
2023/07/13 07:29:48;;;;;;;5.25;2.00;;;;;;;;;;5041387;28;20056;-75
2023/07/13 07:32:13;;;;;;;5.40;2.05;;;;;;;;;;5052404;28;20480;-75
2023/07/13 07:34:39;;;;;;;5.18;2.33;;;;;;;;;;5049480;28;20044;-75
2023/07/13 07:37:04;;;;;;;6.30;2.78;;;;;;;;;;5048124;28;20025;-75
2023/07/13 07:39:30;;;;;;;5.55;2.83;;;;;;;;;;5030586;28;20383;-75
2023/07/13 07:41:55;;;;;;;4.75;2.30;;;;;;;;;;5047149;28;20108;-75
2023/07/13 07:44:21;;;;;;;6.38;2.75;;;;;;;;;;5051450;28;20029;-75
2023/07/13 07:46:46;;;;;;;4.78;2.67;;;;;;;;;;5052341;28;20025;-75
2023/07/13 07:49:12;;;;;;;10.95;3.70;;;;;;;;;;5053405;28;20041;-75
2023/07/13 07:51:37;;;;;;;7.53;2.80;;;;;;;;;;5055881;28;20103;-77
2023/07/13 07:54:04;;;;;;;9.13;4.57;;;;;;;;;;5053373;28;20106;-77
2023/07/13 07:56:29;;;;;;;8.77;2.88;;;;;;;;;;5054809;28;20501;-78
2023/07/13 07:58:54;;;;;;;7.40;3.10;;;;;;;;;;5050468;28;20038;-77
2023/07/13 08:01:20;;;;;;;11.35;2.97;;;;;;;;;;5035232;28;20075;-77
2023/07/13 08:03:45;;;;;;;4.03;2.50;;;;;;;;;;5035678;28;20486;-78
2023/07/13 08:06:10;;;;;;;13.15;2.83;;;;;;;;;;5035340;28;20025;-78
2023/07/13 08:08:35;;;;;;;8.30;2.53;;;;;;;;;;5036004;28;20017;-78
2023/07/13 08:11:08;;;;;;;12.45;2.45;;;;;;;;;;5034781;28;20679;-78
2023/07/13 08:13:33;;;;;;;8.90;2.28;;;;;;;;;;5036261;28;20021;-77
2023/07/13 08:15:59;;;;;;;9.50;2.33;;;;;;;;;;5047793;28;20031;-78
2023/07/13 08:18:24;;;;;;;7.95;2.58;;;;;;;;;;5055096;28;20024;-78
2023/07/13 08:20:50;;;;;;;13.07;4.15;;;;;;;;;;5047049;28;20060;-78
2023/07/13 08:23:16;;;;;;;6.38;2.20;;;;;;;;;;5036721;28;20025;-78
2023/07/13 08:25:42;;;;;;;4.13;1.88;;;;;;;;;;5035508;28;20462;-78
2023/07/13 08:28:07;;;;;;;3.65;1.85;;;;;;;;;;5036432;28;20029;-78
2023/07/13 08:30:32;;;;;;;8.00;2.85;;;;;;;;;;5036782;28;20029;-76
2023/07/13 08:32:58;;;;;;;4.18;2.25;;;;;;;;;;5042123;28;20026;-78
2023/07/13 08:35:25;;;;;;;6.82;2.47;;;;;;;;;;5040339;28;20037;-78
2023/07/13 08:37:50;;;;;;;5.20;2.20;;;;;;;;;;5052594;28;20417;-78
2023/07/13 08:40:17;;;;;;;4.35;2.25;;;;;;;;;;5052597;28;20036;-78
2023/07/13 08:42:46;;;;;;;5.68;1.80;;;;;;;;;;5035311;28;20040;-78
2023/07/13 08:45:22;;;;;;;3.00;1.65;;;;;;;;;;5037085;28;20033;-78
2023/07/13 08:48:02;;;;;;;4.50;1.88;;;;;;;;;;5034818;28;20425;-78
2023/07/13 08:50:31;;;;;;;4.35;1.83;;;;;;;;;;5043243;28;20479;-77
2023/07/13 08:52:57;;;;;;;5.72;2.22;;;;;;;;;;5053433;28;20035;-78
2023/07/13 08:55:28;;;;;;;3.92;2.25;;;;;;;;;;5055199;28;20041;-78
2023/07/13 08:57:59;;;;;;;8.27;2.33;;;;;;;;;;5054382;28;20025;-78
2023/07/13 09:00:34;;;;;;;8.10;1.90;;;;;;;;;;5055596;28;20017;-78
2023/07/13 09:03:00;;;;;;;4.05;2.00;;;;;;;;;;5055283;28;20087;-78
2023/07/13 09:05:31;;;;;;;3.75;2.00;;;;;;;;;;5055820;28;20516;-79
2023/07/13 09:08:24;;;;;;;4.00;1.80;;;;;;;;;;5052626;28;20037;-79
2023/07/13 09:10:53;;;;;;;4.40;1.92;;;;;;;;;;5041908;28;20434;-76
2023/07/13 09:13:28;;;;;;;3.50;1.80;;;;;;;;;;5037438;28;20021;-74
2023/07/13 09:15:53;;;;;;;3.45;1.65;;;;;;;;;;5054785;28;20034;-73
2023/07/13 09:18:37;;;;;;;4.18;1.98;;;;;;;;;;5053271;28;20033;-72
2023/07/13 09:21:08;;;;;;;6.78;1.95;;;;;;;;;;5052789;28;20082;-72
2023/07/13 09:23:35;;;;;;;2.63;1.63;;;;;;;;;;5049925;28;20052;-72
2023/07/13 09:26:05;;;;;;;4.63;2.10;;;;;;;;;;5033441;28;20053;-71
2023/07/13 09:28:35;;;;;;;4.10;1.73;;;;;;;;;;5038043;28;20403;-72
2023/07/13 09:31:05;;;;;;;4.10;2.00;;;;;;;;;;5052285;28;20124;-72
2023/07/13 09:33:31;;;;;;;5.20;2.00;;;;;;;;;;5053506;28;20048;-72
2023/07/13 09:35:59;;;;;;;6.15;3.35;;;;;;;;;;5052885;28;20542;-72
2023/07/13 09:38:28;;;;;;;3.05;2.00;;;;;;;;;;5053034;28;20044;-72
2023/07/13 09:41:19;;;;;;;6.82;2.33;;;;;;;;;;5052418;28;20067;-72
2023/07/13 09:44:08;;;;;;;6.28;2.45;;;;;;;;;;5048571;28;20047;-72
2023/07/13 09:46:34;;;;;;;4.60;2.60;;;;;;;;;;5046572;28;20029;-73
2023/07/13 09:48:59;;;;;;;12.88;3.25;;;;;;;;;;5053181;28;20452;-72
2023/07/13 09:51:24;;;;;;;7.80;2.80;;;;;;;;;;5046724;28;20029;-74
2023/07/13 09:53:50;;;;;;;7.05;2.80;;;;;;;;;;5030219;28;20021;-74
2023/07/13 09:56:20;;;;;;;5.10;2.20;;;;;;;;;;5033865;28;20032;-75
2023/07/13 09:58:46;;;;;;;8.45;2.90;;;;;;;;;;5033877;28;20022;-75
2023/07/13 10:01:11;;;;;;;6.63;2.25;;;;;;;;;;5036300;28;20094;-75
2023/07/13 10:03:41;;;;;;;6.35;2.22;;;;;;;;;;5033208;28;20406;-75
2023/07/13 10:06:16;;;;;;;4.78;2.78;;;;;;;;;;5036041;28;20074;-76
2023/07/13 10:08:41;;;;;;;6.85;2.30;;;;;;;;;;5031765;28;20032;-75
2023/07/13 10:11:14;;;;;;;7.55;2.70;;;;;;;;;;5033781;28;20025;-76
2023/07/13 10:13:51;;;;;;;4.50;2.20;;;;;;;;;;5032535;28;20022;-75
2023/07/13 10:16:16;;;;;;;4.15;2.30;;;;;;;;;;5031787;28;20025;-75
2023/07/13 10:18:46;;;;;;;4.05;2.25;;;;;;;;;;5035823;28;20049;-76
2023/07/13 10:21:18;;;;;;;8.30;2.15;;;;;;;;;;5046801;28;20109;-75
2023/07/13 10:23:47;;;;;;;6.90;1.90;;;;;;;;;;5032368;28;20063;-76
2023/07/13 10:26:19;;;;;;;4.53;1.92;;;;;;;;;;5034785;28;20394;-75
2023/07/13 10:28:47;;;;;;;7.10;1.98;;;;;;;;;;5049250;28;20040;-76
2023/07/13 10:31:14;;;;;;;5.35;2.30;;;;;;;;;;5034767;28;20033;-75
2023/07/13 10:33:40;;;;;;;7.03;2.13;;;;;;;;;;5031291;28;20103;-76
2023/07/13 10:36:23;;;;;;;5.68;2.25;;;;;;;;;;5046644;28;20056;-76
2023/07/13 10:38:50;;;;;;;7.50;2.15;;;;;;;;;;5051892;28;20083;-76
2023/07/13 10:41:19;;;;;;;3.92;1.90;;;;;;;;;;5050843;28;20021;-76
2023/07/13 10:43:49;;;;;;;7.15;3.25;;;;;;;;;;5048798;28;20021;-76
2023/07/13 10:46:16;;;;;;;6.75;2.35;;;;;;;;;;5031760;28;20032;-76
2023/07/13 10:48:43;;;;;;;5.85;2.00;;;;;;;;;;5041470;28;20029;-76
2023/07/13 10:51:10;;;;;;;6.78;2.80;;;;;;;;;;5034990;28;20115;-76
2023/07/13 10:53:39;;;;;;;4.80;2.28;;;;;;;;;;5050729;28;20075;-76
2023/07/13 10:56:27;;;;;;;6.47;2.67;;;;;;;;;;5053120;28;20460;-76
2023/07/13 10:59:10;;;;;;;5.45;2.00;;;;;;;;;;5048541;28;20034;-76
2023/07/13 11:01:50;;;;;;;;;;;;;;;;;;5033875;28;20029;-76
2023/07/13 11:04:16;;;;;;;6.03;2.08;;;;;;;;;;5033666;28;20392;-76
2023/07/13 11:06:44;;;;;;;4.38;2.58;;;;;;;;;;5032044;28;20021;-76
2023/07/13 11:09:21;;;;;;;4.65;2.55;;;;;;;;;;5032960;28;20025;-76
2023/07/13 11:11:46;;;;;;;8.27;2.47;;;;;;;;;;5035568;28;20104;-76
2023/07/13 11:14:28;;;;;;;7.10;2.05;;;;;;;;;;5033239;28;20104;-76
2023/07/13 11:16:54;;;;;;;6.13;2.17;;;;;;;;;;5028154;28;20036;-76
2023/07/13 11:19:19;;;;;;;4.90;1.88;;;;;;;;;;5031586;28;20017;-76
2023/07/13 11:22:12;;;;;;;5.60;2.03;;;;;;;;;;5038642;28;20036;-76
2023/07/13 11:24:58;;;;;;;7.90;3.22;;;;;;;;;;5035793;28;20045;-75
2023/07/13 11:27:41;;;;;;;7.10;2.20;;;;;;;;;;5055564;28;20025;-75
2023/07/13 11:30:27;;;;;;;6.65;1.90;;;;;;;;;;5055878;28;20490;-76
2023/07/13 11:33:07;;;;;;;5.57;2.25;;;;;;;;;;5055456;28;20044;-76
2023/07/13 11:35:35;;;;;;;6.32;1.80;;;;;;;;;;5055484;28;20094;-77
2023/07/13 11:38:02;;;;;;;6.10;2.33;;;;;;;;;;5055542;28;20143;-76
2023/07/13 11:40:29;;;;;;;4.55;2.10;;;;;;;;;;5051652;28;20078;-76
2023/07/13 11:43:00;;;;;;;4.50;1.80;;;;;;;;;;5035553;28;20510;-76
2023/07/13 11:45:25;;;;;;;5.10;1.95;;;;;;;;;;5036309;28;20025;-76
2023/07/13 11:47:51;;;;;;;7.10;2.30;;;;;;;;;;5038470;28;20029;-75
2023/07/13 11:50:22;;;;;;;10.23;3.17;;;;;;;;;;5056506;28;20021;-76
2023/07/13 11:52:49;;;;;;;6.57;2.25;;;;;;;;;;5054477;28;20470;-76
2023/07/13 11:55:17;;;;;;;10.07;2.40;;;;;;;;;;5054655;28;20028;-74
2023/07/13 11:57:57;;;;;;;4.60;2.08;;;;;;;;;;5055284;28;20071;-73
2023/07/13 12:00:26;;;;;;;5.00;1.83;;;;;;;;;;5054403;28;20040;-75
2023/07/13 12:02:53;;;;;;;7.47;2.65;;;;;;;;;;5054962;28;20032;-75
2023/07/13 12:05:20;;;;;;;5.88;2.00;;;;;;;;;;5054459;28;20021;-75
2023/07/13 12:07:46;;;;;;;7.45;2.20;;;;;;;;;;5038444;28;20020;-75
2023/07/13 12:10:28;;;;;;;5.72;2.30;;;;;;;;;;5054227;28;20566;-75
2023/07/13 12:13:00;;;;;;;4.05;2.20;;;;;;;;;;5056089;28;20025;-75
2023/07/13 12:15:37;;;;;;;6.55;2.35;;;;;;;;;;5037899;28;20044;-75
2023/07/13 12:18:02;;;;;;;5.45;1.95;;;;;;;;;;5054313;28;20029;-75
2023/07/13 12:20:33;;;;;;;5.65;1.90;;;;;;;;;;5055946;28;20047;-75
2023/07/13 12:22:59;;;;;;;6.38;2.35;;;;;;;;;;5037033;28;20025;-75
2023/07/13 12:25:25;;;;;;;4.82;2.08;;;;;;;;;;5054573;28;20450;-75
2023/07/13 12:27:51;;;;;;;4.20;1.65;;;;;;;;;;5050849;28;20454;-75
2023/07/13 12:30:35;;;;;;;4.90;1.88;;;;;;;;;;5035435;28;20100;-75
2023/07/13 12:33:08;;;;;;;7.55;2.08;;;;;;;;;;5033249;28;20029;-75
2023/07/13 12:35:41;;;;;;;7.47;2.13;;;;;;;;;;5034067;28;20033;-75
2023/07/13 12:38:08;;;;;;;4.50;1.83;;;;;;;;;;5034168;28;20071;-75
2023/07/13 12:40:36;;;;;;;5.40;2.40;;;;;;;;;;5034237;28;20033;-75
2023/07/13 12:43:04;;;;;;;3.80;1.85;;;;;;;;;;5048736;28;20032;-75
2023/07/13 12:45:30;;;;;;;6.78;1.90;;;;;;;;;;5055113;28;20025;-75
2023/07/13 12:47:59;;;;;;;4.22;1.90;;;;;;;;;;5053657;28;20497;-74
2023/07/13 12:50:29;;;;;;;4.45;2.00;;;;;;;;;;5035585;28;20087;-73
2023/07/13 12:53:03;;;;;;;3.45;1.70;;;;;;;;;;5035111;28;20029;-73
2023/07/13 12:55:32;;;;;;;4.55;1.40;;;;;;;;;;5033984;28;20036;-75
2023/07/13 12:58:01;;;;;;;1.90;1.17;;;;;;;;;;5034562;28;20025;-74
2023/07/13 13:00:37;;;;;;;3.90;1.38;;;;;;;;;;5034057;28;20044;-75
2023/07/13 13:03:36;;;;;;;2.90;1.48;;;;;;;;;;5033940;28;20073;-74
2023/07/13 13:06:06;;;;;;;6.70;1.80;;;;;;;;;;5041116;28;20033;-74
2023/07/13 13:08:33;;;;;;;4.18;1.50;;;;;;;;;;5053458;28;20104;-72
2023/07/13 13:10:59;;;;;;;5.07;1.73;;;;;;;;;;5048244;28;20107;-71
2023/07/13 13:13:24;;;;;;;3.97;1.48;;;;;;;;;;5041899;28;20164;-71
2023/07/13 13:15:50;;;;;;;3.80;1.42;;;;;;;;;;5043093;28;20528;-71
2023/07/13 13:18:21;;;;;;;3.08;1.30;;;;;;;;;;5040833;28;20033;-72
2023/07/13 13:20:47;;;;;;;;;;;;;;;;;;5041648;28;20023;-69
2023/07/13 13:23:17;;;;;;;1.88;1.20;;;;;;;;;;5040080;28;19921;-71
2023/07/13 13:25:46;;;;;;;3.08;1.30;;;;;;;;;;5046500;28;20029;-72
2023/07/13 13:28:15;;;;;;;1.65;1.08;;;;;;;;;;5043388;28;20457;-73
2023/07/13 13:30:40;;;;;;;2.72;1.25;;;;;;;;;;5037549;28;20478;-72
2023/07/13 13:33:10;;;;;;;1.65;0.93;;;;;;;;;;5042047;28;20086;-74
2023/07/13 13:35:35;;;;;;;2.63;1.20;;;;;;;;;;5045318;28;20029;-75
2023/07/13 13:38:01;;;;;;;1.42;0.85;;;;;;;;;;5043787;28;20490;-74
2023/07/13 13:40:27;;;;;;;0.93;0.82;;;;;;;;;;5038236;28;20031;-75
2023/07/13 13:42:53;;;;;;;1.75;0.80;;;;;;;;;;5044524;28;20036;-74
2023/07/13 13:45:21;;;;;;;2.42;1.10;;;;;;;;;;5033359;28;20063;-75
2023/07/13 13:47:47;;;;;;;2.83;1.00;;;;;;;;;;5043895;28;20082;-75
2023/07/13 13:50:16;;;;;;;2.80;1.23;;;;;;;;;;5047698;28;20033;-75
2023/07/13 13:52:42;;;;;;;2.38;1.23;;;;;;;;;;5053738;28;20037;-74
2023/07/13 13:55:15;;;;;;;5.15;1.75;;;;;;;;;;5042654;28;20033;-75
2023/07/13 13:57:40;;;;;;;3.72;1.42;;;;;;;;;;5061957;22;20033;-72
2023/07/13 14:00:08;;;;;;;2.33;1.60;;;;;;;;;;5021244;28;20033;-71
2023/07/13 14:02:34;;;;;;;5.28;1.75;;;;;;;;;;5022183;28;20025;-71
2023/07/13 14:05:01;;;;;;;3.80;1.67;;;;;;;;;;5029996;28;20036;-70
2023/07/13 14:07:26;;;;;;;3.25;1.40;;;;;;;;;;5036819;28;20429;-70
2023/07/13 14:09:54;;;;;;;6.93;2.00;;;;;;;;;;5034765;28;20033;-70
2023/07/13 14:12:20;;;;;;;5.28;2.35;;;;;;;;;;5028120;28;20051;-72
2023/07/13 14:14:45;;;;;;;3.72;1.80;;;;;;;;;;5024895;28;20021;-74
2023/07/13 14:17:21;;;;;;;5.28;2.03;;;;;;;;;;5026851;28;20140;-76
2023/07/13 14:19:50;;;;;;;4.35;2.05;;;;;;;;;;5036980;28;20441;-75
2023/07/13 14:22:16;;;;;;;4.63;2.00;;;;;;;;;;5029090;28;20013;-75
2023/07/13 14:24:41;;;;;;;4.35;2.45;;;;;;;;;;5025218;28;20037;-76
2023/07/13 14:27:09;;;;;;;5.65;2.20;;;;;;;;;;5032699;28;20021;-76
2023/07/13 14:29:34;;;;;;;7.53;2.40;;;;;;;;;;5012775;28;20398;-76
2023/07/13 14:31:59;;;;;;;3.53;1.48;;;;;;;;;;5032582;28;20029;-74
2023/07/13 14:34:25;;;;;;;5.55;2.55;;;;;;;;;;5032713;28;20025;-74
2023/07/13 14:36:50;;;;;;;4.68;2.30;;;;;;;;;;5033293;28;20491;-74
2023/07/13 14:39:17;;;;;;;7.85;2.35;;;;;;;;;;5033294;28;20536;-75
2023/07/13 14:41:43;;;;;;;6.53;2.20;;;;;;;;;;5041470;28;20398;-74
2023/07/13 14:44:17;;;;;;;7.78;2.05;;;;;;;;;;5015684;28;20028;-74
2023/07/13 14:46:45;;;;;;;7.68;2.05;;;;;;;;;;5031965;28;20029;-74